createdAt,value
2022-08-05T00:00:12.758Z,0
2022-08-05T00:01:30.870Z,0
2022-08-05T00:02:15.625Z,0
2022-08-05T00:03:19.160Z,0
2022-08-05T00:04:11.676Z,0
2022-08-05T00:06:29.205Z,0
2022-08-05T00:06:35.926Z,78.78
2022-08-05T00:08:05.611Z,20
2022-08-05T00:08:38.801Z,0
2022-08-05T00:09:20.226Z,20
2022-08-05T00:10:12.549Z,20
2022-08-05T00:11:30.341Z,0
2022-08-05T00:12:16.451Z,0
2022-08-05T00:13:21.641Z,0
2022-08-05T00:16:00.262Z,0
2022-08-05T00:16:12.502Z,0
2022-08-05T00:17:31.972Z,79.26
2022-08-05T00:18:10.539Z,79.26
2022-08-05T00:19:11.493Z,79.22
2022-08-05T00:20:10.694Z,79.10
2022-08-05T00:21:11.687Z,50
2022-08-05T00:22:14.811Z,10
2022-08-05T00:23:17.420Z,78.99
2022-08-05T00:24:16.235Z,50
2022-08-05T00:25:16.422Z,0
2022-08-05T00:26:11.809Z,60
2022-08-05T00:27:20.925Z,78.91
2022-08-05T00:28:16.401Z,78.91
2022-08-05T00:29:11.842Z,78.86
2022-08-05T00:30:15.500Z,78.85
2022-08-05T00:31:11.671Z,78.88
2022-08-05T00:32:18.884Z,79.02
2022-08-05T00:35:05.103Z,79.23
2022-08-05T00:35:10.984Z,79.23
2022-08-05T00:35:13.709Z,79.23
2022-08-05T00:37:17.287Z,79.23
2022-08-05T00:37:19.271Z,79.23
2022-08-05T00:38:13.315Z,79.18
2022-08-05T00:39:17.891Z,79.29
2022-08-05T00:40:13.397Z,79.39
2022-08-05T00:41:16.060Z,79.43
2022-08-05T00:42:12.598Z,79.42
2022-08-05T00:43:11.713Z,79.40
2022-08-05T00:44:12.222Z,79.53
2022-08-05T00:45:17.804Z,79.75
2022-08-05T00:46:11.540Z,40
2022-08-05T00:47:16.445Z,0
2022-08-05T00:48:11.785Z,10
2022-08-05T00:49:17.976Z,50
2022-08-05T00:50:11.930Z,0
2022-08-05T00:51:55.192Z,0
2022-08-05T00:52:12.066Z,0
2022-08-05T00:54:02.201Z,30
2022-08-05T00:54:15.245Z,30
2022-08-05T00:55:11.656Z,0
2022-08-05T00:56:12.392Z,0
2022-08-05T00:57:11.971Z,0
2022-08-05T00:58:15.073Z,79.71
2022-08-05T00:59:12.117Z,79.52
2022-08-05T01:00:19.885Z,79.47
2022-08-05T01:01:13.799Z,79.47
2022-08-05T01:02:12.601Z,50
2022-08-05T01:03:22.284Z,79.52
2022-08-05T01:04:19.970Z,79.51
2022-08-05T01:05:13.970Z,79.53
2022-08-05T01:07:17.858Z,20
2022-08-05T01:08:47.567Z,0
2022-08-05T01:09:11.310Z,0
2022-08-05T01:10:12.876Z,20
2022-08-05T01:11:11.845Z,79.45
2022-08-05T01:12:22.458Z,79.41
2022-08-05T01:13:27.265Z,79.44
2022-08-05T01:14:15.317Z,79.44
2022-08-05T01:15:40.514Z,0
2022-08-05T01:16:11.943Z,0
2022-08-05T01:17:11.710Z,0
2022-08-05T01:18:15.403Z,0
2022-08-05T01:19:12.012Z,0
2022-08-05T01:20:11.695Z,0
2022-08-05T01:21:22.712Z,0
2022-08-05T01:22:15.495Z,0
2022-08-05T01:23:34.851Z,0
2022-08-05T01:24:18.107Z,0
2022-08-05T01:25:11.558Z,50
2022-08-05T01:26:13.565Z,79.08
2022-08-05T01:27:22.875Z,79.33
2022-08-05T01:28:12.527Z,79.33
2022-08-05T01:29:11.882Z,79.32
2022-08-05T01:30:33.559Z,79.09
2022-08-05T01:31:11.619Z,79.09
2022-08-05T01:32:21.691Z,79.06
2022-08-05T01:33:12.411Z,79.06
2022-08-05T01:34:11.898Z,79.06
2022-08-05T01:35:51.596Z,79.14
2022-08-05T01:36:16.673Z,79.09
2022-08-05T01:37:17.989Z,79.17
2022-08-05T01:39:13.194Z,79.47
2022-08-05T01:40:11.080Z,79.42
2022-08-05T01:41:10.186Z,79.35
2022-08-05T01:42:13.815Z,79.26
2022-08-05T01:43:25.789Z,79.03
2022-08-05T01:44:13.639Z,79.03
2022-08-05T01:45:11.835Z,79.00
2022-08-05T01:46:46.263Z,78.74
2022-08-05T01:47:13.003Z,78.74
2022-08-05T01:48:14.330Z,78.59
2022-08-05T01:49:42.735Z,78.44
2022-08-05T01:51:16.682Z,78.43
2022-08-05T01:52:21.228Z,78.45
2022-08-05T01:53:11.241Z,78.45
2022-08-05T01:54:13.274Z,50
2022-08-05T01:55:12.167Z,30
2022-08-05T01:56:12.466Z,10
2022-08-05T01:58:40.453Z,0
2022-08-05T01:59:11.564Z,0
2022-08-05T02:00:15.855Z,0
2022-08-05T02:01:12.637Z,0
2022-08-05T02:02:14.064Z,0
2022-08-05T02:03:31.406Z,0
2022-08-05T02:04:10.762Z,0
2022-08-05T02:05:15.566Z,0
2022-08-05T02:06:41.971Z,0
2022-08-05T02:07:10.599Z,0
2022-08-05T02:08:11.379Z,10
2022-08-05T02:09:10.947Z,10
2022-08-05T02:10:17.325Z,60
2022-08-05T02:11:15.095Z,0
2022-08-05T02:12:13.734Z,0
2022-08-05T02:13:19.990Z,77.03
2022-08-05T02:14:17.051Z,77.03
2022-08-05T02:15:15.675Z,76.85
2022-08-05T02:17:29.675Z,76.81
2022-08-05T02:18:37.989Z,77.08
2022-08-05T02:19:10.739Z,77.08
2022-08-05T02:20:10.887Z,77.10
2022-08-05T02:21:18.557Z,50
2022-08-05T02:22:10.692Z,50
2022-08-05T02:23:12.105Z,0
2022-08-05T02:24:10.485Z,0
2022-08-05T02:25:12.611Z,0
2022-08-05T02:26:13.926Z,30
2022-08-05T02:27:59.348Z,0
2022-08-05T02:28:12.365Z,0
2022-08-05T02:29:26.179Z,10
2022-08-05T02:30:11.659Z,10
2022-08-05T02:31:21.092Z,77.19
2022-08-05T02:32:11.407Z,77.19
2022-08-05T02:33:10.616Z,77.43
2022-08-05T02:34:13.345Z,0
2022-08-05T02:35:22.059Z,30
2022-08-05T02:36:13.771Z,10
2022-08-05T02:37:10.827Z,0
2022-08-05T02:38:13.394Z,0
2022-08-05T02:39:12.370Z,0
2022-08-05T02:40:14.009Z,0
2022-08-05T02:41:21.526Z,0
2022-08-05T02:42:26.129Z,0
2022-08-05T02:43:11.188Z,20
2022-08-05T02:44:17.182Z,77.77
2022-08-05T02:45:13.813Z,77.93
2022-08-05T02:47:11.004Z,10
2022-08-05T02:48:16.545Z,0
2022-08-05T02:49:15.113Z,60
2022-08-05T02:50:18.114Z,78.72
2022-08-05T02:51:11.926Z,60
2022-08-05T02:52:13.626Z,10
2022-08-05T02:53:18.669Z,20
2022-08-05T02:54:11.657Z,0
2022-08-05T02:55:17.521Z,0
2022-08-05T02:56:10.977Z,0
2022-08-05T02:58:17.144Z,0
2022-08-05T02:58:17.471Z,0
2022-08-05T02:59:10.151Z,10
2022-08-05T03:00:12.738Z,79.31
2022-08-05T03:01:14.817Z,79.40
2022-08-05T03:02:10.734Z,79.49
2022-08-05T03:03:13.674Z,79.66
2022-08-05T03:05:11.087Z,79.99
2022-08-05T03:07:02.352Z,80.41
2022-08-05T03:07:40.587Z,80.49
2022-08-05T03:08:13.370Z,80.49
2022-08-05T03:09:11.437Z,80.43
2022-08-05T03:10:10.757Z,80.38
2022-08-05T03:12:00.000Z,80.61
2022-08-05T03:12:11.265Z,80.61
2022-08-05T03:13:10.258Z,80.45
2022-08-05T03:14:13.611Z,80.38
2022-08-05T03:15:12.984Z,80.35
2022-08-05T03:16:12.691Z,80.43
2022-08-05T03:17:12.494Z,80.63
2022-08-05T03:18:11.326Z,80.67
2022-08-05T03:19:33.165Z,81.02
2022-08-05T03:20:13.821Z,81.02
2022-08-05T03:21:10.311Z,81.27
2022-08-05T03:23:10.563Z,81.31
2022-08-05T03:24:11.959Z,81.41
2022-08-05T03:26:04.267Z,81.59
2022-08-05T03:26:35.736Z,81.62
2022-08-05T03:27:10.881Z,81.62
2022-08-05T03:28:11.576Z,81.54
2022-08-05T03:29:17.306Z,81.71
2022-08-05T03:30:12.669Z,81.49
2022-08-05T03:31:10.934Z,81.28
2022-08-05T03:32:12.161Z,81.13
2022-08-05T03:33:11.024Z,81.07
2022-08-05T03:34:13.836Z,81.36
2022-08-05T03:35:12.848Z,81.62
2022-08-05T03:36:15.436Z,81.90
2022-08-05T03:37:10.489Z,81.84
2022-08-05T03:38:11.208Z,81.87
2022-08-05T03:39:13.111Z,81.83
2022-08-05T03:40:31.286Z,81.83
2022-08-05T03:41:14.650Z,81.98
2022-08-05T03:42:10.632Z,82.06
2022-08-05T03:44:19.698Z,82.08
2022-08-05T03:44:20.084Z,82.08
2022-08-05T03:45:27.064Z,82.45
2022-08-05T03:46:11.598Z,82.45
2022-08-05T03:47:10.713Z,82.48
2022-08-05T03:48:11.518Z,82.37
2022-08-05T03:49:11.410Z,82.28
2022-08-05T03:50:13.561Z,82.31
2022-08-05T03:56:00.689Z,82.26
2022-08-05T03:56:03.758Z,82.26
2022-08-05T03:56:17.329Z,82.26
2022-08-05T03:56:18.047Z,82.26
2022-08-05T03:56:27.878Z,82.26
2022-08-05T03:56:35.401Z,82.38
2022-08-05T03:57:46.120Z,82.37
2022-08-05T03:58:13.465Z,82.37
2022-08-05T03:59:11.883Z,82.42
2022-08-05T04:00:15.817Z,82.62
2022-08-05T04:01:12.858Z,82.80
2022-08-05T04:02:58.754Z,60
2022-08-05T04:03:28.377Z,60
2022-08-05T04:04:13.806Z,83.02
2022-08-05T04:05:13.553Z,83.14
2022-08-05T04:06:12.319Z,83.08
2022-08-05T04:07:10.725Z,83.03
2022-08-05T04:08:35.997Z,83.33
2022-08-05T04:09:11.275Z,83.33
2022-08-05T04:10:10.922Z,83.41
2022-08-05T04:11:12.426Z,83.45
2022-08-05T04:12:28.082Z,83.48
2022-08-05T04:13:10.710Z,83.48
2022-08-05T04:14:11.033Z,83.48
2022-08-05T04:15:15.514Z,83.48
2022-08-05T04:16:11.181Z,83.71
2022-08-05T04:17:11.370Z,83.79
2022-08-05T04:18:22.333Z,83.91
2022-08-05T04:19:13.933Z,83.86
2022-08-05T04:20:14.379Z,83.94
2022-08-05T04:21:19.930Z,84.09
2022-08-05T04:22:15.534Z,84.13
2022-08-05T04:23:16.334Z,84.06
2022-08-05T04:24:18.706Z,83.95
2022-08-05T04:25:14.486Z,84.09
2022-08-05T04:26:11.286Z,84.27
2022-08-05T04:27:11.514Z,84.41
2022-08-05T04:28:17.269Z,70
2022-08-05T04:29:11.228Z,84.20
2022-08-05T04:30:12.841Z,84.16
2022-08-05T04:31:15.985Z,84.27
2022-08-05T04:32:11.310Z,84.17
2022-08-05T04:33:11.257Z,84.24
2022-08-05T04:34:42.908Z,84.50
2022-08-05T04:35:23.315Z,84.69
2022-08-05T04:36:45.768Z,84.72
2022-08-05T04:37:10.998Z,84.72
2022-08-05T04:38:11.004Z,84.61
2022-08-05T04:39:11.427Z,84.50
2022-08-05T04:40:11.539Z,84.44
2022-08-05T04:41:13.551Z,84.36
2022-08-05T04:42:12.478Z,84.07
2022-08-05T04:43:22.111Z,83.86
2022-08-05T04:44:13.233Z,83.86
2022-08-05T04:45:11.308Z,83.83
2022-08-05T04:46:10.403Z,83.84
2022-08-05T04:47:18.399Z,84.10
2022-08-05T04:49:18.167Z,84.10
2022-08-05T04:50:15.171Z,84.02
2022-08-05T04:51:14.981Z,83.97
2022-08-05T04:52:11.260Z,83.89
2022-08-05T04:53:11.841Z,83.97
2022-08-05T04:54:13.083Z,83.84
2022-08-05T04:55:39.829Z,83.98
2022-08-05T04:56:45.294Z,84.19
2022-08-05T04:57:11.201Z,84.19
2022-08-05T04:58:15.650Z,84.16
2022-08-05T04:59:36.791Z,84.10
2022-08-05T05:00:11.834Z,84.10
2022-08-05T05:01:11.126Z,84.06
2022-08-05T05:02:44.876Z,84.15
2022-08-05T05:03:10.929Z,84.15
2022-08-05T05:04:11.424Z,84.19
2022-08-05T05:05:32.443Z,84.28
2022-08-05T05:06:57.535Z,84.43
2022-08-05T05:07:15.817Z,84.43
2022-08-05T05:08:26.613Z,84.59
2022-08-05T05:09:13.288Z,84.67
2022-08-05T05:10:11.399Z,84.65
2022-08-05T05:11:11.352Z,84.68
2022-08-05T05:12:11.788Z,84.72
2022-08-05T05:13:11.266Z,84.65
2022-08-05T05:14:16.066Z,84.59
2022-08-05T05:15:17.442Z,84.53
2022-08-05T05:16:10.754Z,84.58
2022-08-05T05:17:12.972Z,84.67
2022-08-05T05:18:11.156Z,84.69
2022-08-05T05:19:27.269Z,84.60
2022-08-05T05:20:10.906Z,84.60
2022-08-05T05:21:10.889Z,84.49
2022-08-05T05:22:27.829Z,84.59
2022-08-05T05:23:19.858Z,84.59
2022-08-05T05:24:12.732Z,84.51
2022-08-05T05:25:20.683Z,84.71
2022-08-05T05:26:11.429Z,84.71
2022-08-05T05:27:11.050Z,84.75
2022-08-05T05:28:11.233Z,84.80
2022-08-05T05:29:18.388Z,84.83
2022-08-05T05:31:12.362Z,84.73
2022-08-05T05:32:15.875Z,84.76
2022-08-05T05:33:23.448Z,84.80
2022-08-05T05:34:10.846Z,84.80
2022-08-05T05:35:12.335Z,84.93
2022-08-05T05:36:10.549Z,84.95
2022-08-05T05:37:10.746Z,85.02
2022-08-05T05:38:22.169Z,84.80
2022-08-05T05:39:14.581Z,84.77
2022-08-05T05:40:11.217Z,84.76
2022-08-05T05:41:11.071Z,84.93
2022-08-05T05:42:10.189Z,84.96
2022-08-05T05:43:12.130Z,85.15
2022-08-05T05:44:43.026Z,84.95
2022-08-05T05:45:12.228Z,84.95
2022-08-05T05:48:06.113Z,85.03
2022-08-05T05:48:12.045Z,85.03
2022-08-05T05:49:26.417Z,85.34
2022-08-05T05:50:11.154Z,85.34
2022-08-05T05:51:19.407Z,85.14
2022-08-05T05:52:13.348Z,85.14
2022-08-05T05:53:25.881Z,0
2022-08-05T05:54:15.229Z,0
2022-08-05T05:55:17.372Z,0
2022-08-05T05:56:12.277Z,70
2022-08-05T05:57:23.258Z,85.10
2022-08-05T05:58:12.916Z,85.10
2022-08-05T05:59:11.481Z,84.99
2022-08-05T06:00:15.571Z,84.86
2022-08-05T06:01:17.503Z,85.08
2022-08-05T06:02:11.900Z,85.28
2022-08-05T06:04:06.976Z,84.98
2022-08-05T06:04:16.688Z,84.98
2022-08-05T06:05:20.681Z,84.83
2022-08-05T06:06:10.892Z,84.83
2022-08-05T06:07:13.990Z,84.77
2022-08-05T06:08:12.894Z,84.83
2022-08-05T06:09:26.700Z,84.87
2022-08-05T06:10:14.052Z,84.87
2022-08-05T06:11:19.693Z,84.94
2022-08-05T06:12:15.516Z,84.94
2022-08-05T06:13:11.364Z,85.02
2022-08-05T06:14:10.593Z,85.03
2022-08-05T06:15:23.524Z,84.98
2022-08-05T06:16:37.241Z,84.95
2022-08-05T06:17:53.481Z,84.92
2022-08-05T06:18:10.411Z,84.92
2022-08-05T06:19:11.472Z,84.92
2022-08-05T06:20:24.880Z,85.09
2022-08-05T06:21:22.114Z,85.08
2022-08-05T06:22:10.924Z,85.08
2022-08-05T06:23:25.047Z,85.25
2022-08-05T06:24:14.919Z,85.25
2022-08-05T06:26:20.871Z,85.11
2022-08-05T06:26:24.103Z,85.17
2022-08-05T06:28:20.700Z,85.21
2022-08-05T06:28:20.867Z,85.21
2022-08-05T06:29:46.346Z,85.08
2022-08-05T06:30:25.227Z,84.99
2022-08-05T06:31:21.770Z,84.97
2022-08-05T06:32:29.866Z,85.01
2022-08-05T06:33:19.094Z,85.01
2022-08-05T06:34:12.477Z,85.12
2022-08-05T06:36:07.066Z,85.02
2022-08-05T06:36:13.569Z,85.02
2022-08-05T06:37:10.168Z,85.06
2022-08-05T06:38:15.422Z,85.08
2022-08-05T06:39:10.711Z,85.13
2022-08-05T06:40:11.785Z,85.19
2022-08-05T06:41:11.672Z,85.13
2022-08-05T06:42:10.987Z,85.18
2022-08-05T06:44:01.020Z,85.27
2022-08-05T06:44:09.916Z,85.27
2022-08-05T06:45:20.887Z,70
2022-08-05T06:46:11.142Z,85.59
2022-08-05T06:48:35.995Z,85.45
2022-08-05T06:50:01.832Z,85.72
2022-08-05T06:50:11.464Z,85.72
2022-08-05T06:51:29.861Z,85.62
2022-08-05T06:52:40.963Z,85.66
2022-08-05T06:53:28.334Z,85.72
2022-08-05T06:54:18.176Z,85.72
2022-08-05T06:55:11.078Z,85.58
2022-08-05T06:56:29.777Z,85.40
2022-08-05T06:58:20.196Z,85.39
2022-08-05T06:58:36.456Z,85.32
2022-08-05T06:59:13.564Z,85.32
2022-08-05T07:00:14.284Z,85.31
2022-08-05T07:01:11.165Z,85.48
2022-08-05T07:02:11.457Z,85.68
2022-08-05T07:03:13.309Z,85.70
2022-08-05T07:04:13.793Z,85.68
2022-08-05T07:05:37.023Z,85.77
2022-08-05T07:07:11.547Z,85.80
2022-08-05T07:08:14.411Z,85.72
2022-08-05T07:09:10.738Z,85.61
2022-08-05T07:10:14.892Z,85.70
2022-08-05T07:11:22.353Z,85.77
2022-08-05T07:12:11.973Z,85.77
2022-08-05T07:13:13.413Z,85.67
2022-08-05T07:15:12.107Z,85.56
2022-08-05T07:16:25.677Z,85.52
2022-08-05T07:18:20.276Z,85.44
2022-08-05T07:18:27.060Z,85.44
2022-08-05T07:19:11.025Z,85.45
2022-08-05T07:20:39.103Z,85.47
2022-08-05T07:21:11.589Z,85.47
2022-08-05T07:22:11.438Z,85.42
2022-08-05T07:23:13.012Z,85.33
2022-08-05T07:24:14.881Z,85.34
2022-08-05T07:25:59.170Z,85.20
2022-08-05T07:26:10.074Z,85.20
2022-08-05T07:27:12.485Z,84.93
2022-08-05T07:28:17.364Z,84.86
2022-08-05T07:29:10.201Z,84.92
2022-08-05T07:30:32.919Z,84.83
2022-08-05T07:31:10.589Z,84.83
2022-08-05T07:32:10.402Z,84.83
2022-08-05T07:33:16.467Z,84.89
2022-08-05T07:34:13.881Z,84.99
2022-08-05T07:36:21.226Z,84.88
2022-08-05T07:36:24.796Z,84.81
2022-08-05T07:37:12.553Z,84.81
2022-08-05T07:38:32.882Z,84.85
2022-08-05T07:40:04.454Z,85.08
2022-08-05T07:40:36.378Z,85.10
2022-08-05T07:42:33.372Z,85.11
2022-08-05T07:43:23.729Z,85.22
2022-08-05T07:45:14.618Z,85.12
2022-08-05T07:46:28.481Z,84.87
2022-08-05T07:47:14.834Z,84.87
2022-08-05T07:48:12.326Z,84.90
2022-08-05T07:49:11.574Z,85.03
2022-08-05T07:50:11.106Z,85.09
2022-08-05T07:51:37.018Z,85.06
2022-08-05T07:52:13.064Z,85.06
2022-08-05T07:53:10.727Z,84.96
2022-08-05T07:54:13.221Z,84.74
2022-08-05T07:57:00.125Z,84.86
2022-08-05T07:57:17.575Z,84.88
2022-08-05T07:57:57.412Z,84.80
2022-08-05T07:59:12.456Z,84.78
2022-08-05T08:00:15.782Z,84.82
2022-08-05T08:01:16.288Z,84.84
2022-08-05T08:03:19.194Z,84.85
2022-08-05T08:04:11.520Z,84.68
2022-08-05T08:05:11.401Z,84.68
2022-08-05T08:06:13.478Z,84.63
2022-08-05T08:07:11.349Z,84.57
2022-08-05T08:08:16.073Z,84.65
2022-08-05T08:09:10.956Z,84.73
2022-08-05T08:10:11.831Z,84.77
2022-08-05T08:11:15.936Z,84.83
2022-08-05T08:12:33.294Z,84.79
2022-08-05T08:13:14.982Z,84.79
2022-08-05T08:14:10.755Z,84.83
2022-08-05T08:15:17.565Z,84.97
2022-08-05T08:16:53.771Z,84.76
2022-08-05T08:17:16.091Z,84.76
2022-08-05T08:18:20.901Z,84.58
2022-08-05T08:19:10.273Z,84.59
2022-08-05T08:21:02.069Z,84.55
2022-08-05T08:21:19.325Z,84.57
2022-08-05T08:22:15.913Z,84.57
2022-08-05T08:24:09.515Z,84.59
2022-08-05T08:24:17.459Z,84.59
2022-08-05T08:25:26.386Z,84.62
2022-08-05T08:26:11.166Z,84.62
2022-08-05T08:27:11.598Z,84.59
2022-08-05T08:30:18.958Z,84.78
2022-08-05T08:30:47.583Z,84.75
2022-08-05T08:31:14.898Z,84.75
2022-08-05T08:32:14.382Z,84.75
2022-08-05T08:33:13.714Z,84.75
2022-08-05T08:34:11.401Z,84.82
2022-08-05T08:35:16.975Z,84.76
2022-08-05T08:36:48.827Z,84.77
2022-08-05T08:37:11.984Z,84.77
2022-08-05T08:38:11.719Z,84.72
2022-08-05T08:39:19.247Z,84.82
2022-08-05T08:40:11.323Z,84.82
2022-08-05T08:41:10.474Z,84.89
2022-08-05T08:42:54.271Z,85.09
2022-08-05T08:45:29.493Z,85.30
2022-08-05T08:45:29.647Z,85.30
2022-08-05T08:45:29.786Z,85.30
2022-08-05T08:48:23.170Z,85.46
2022-08-05T08:50:05.991Z,85.51
2022-08-05T08:51:03.846Z,85.42
2022-08-05T08:51:03.870Z,85.42
2022-08-05T08:52:13.835Z,85.48
2022-08-05T08:52:28.497Z,85.58
2022-08-05T08:53:15.380Z,85.58
2022-08-05T08:54:10.690Z,85.64
2022-08-05T08:55:19.307Z,85.66
2022-08-05T08:56:11.197Z,85.57
2022-08-05T08:57:17.724Z,85.55
2022-08-05T08:58:13.157Z,85.50
2022-08-05T08:59:22.980Z,85.16
2022-08-05T09:00:13.319Z,85.16
2022-08-05T09:01:16.369Z,85.13
2022-08-05T09:02:12.201Z,85.24
2022-08-05T09:03:11.142Z,85.27
2022-08-05T09:04:14.111Z,85.19
2022-08-05T09:05:38.901Z,84.98
2022-08-05T09:06:21.022Z,84.98
2022-08-05T09:07:28.943Z,84.90
2022-08-05T09:08:13.337Z,84.90
2022-08-05T09:09:10.696Z,84.86
2022-08-05T09:10:11.293Z,84.64
2022-08-05T09:11:13.620Z,84.36
2022-08-05T09:12:27.211Z,84.36
2022-08-05T09:13:11.442Z,84.36
2022-08-05T09:15:05.741Z,84.15
2022-08-05T09:15:10.904Z,84.15
2022-08-05T09:16:17.863Z,84.14
2022-08-05T09:17:16.098Z,84.25
2022-08-05T09:18:13.414Z,84.33
2022-08-05T09:19:10.539Z,84.40
2022-08-05T09:20:12.197Z,84.43
2022-08-05T09:22:22.972Z,84.36
2022-08-05T09:22:31.997Z,84.59
2022-08-05T09:23:19.191Z,84.59
2022-08-05T09:24:10.472Z,84.98
2022-08-05T09:26:01.098Z,84.74
2022-08-05T09:26:20.612Z,84.74
2022-08-05T09:27:12.994Z,84.61
2022-08-05T09:28:11.375Z,84.54
2022-08-05T09:29:18.773Z,84.68
2022-08-05T09:32:46.480Z,84.48
2022-08-05T09:32:50.112Z,84.48
2022-08-05T09:33:11.295Z,84.48
2022-08-05T09:34:13.276Z,84.59
2022-08-05T09:35:11.618Z,84.35
2022-08-05T09:37:18.795Z,84.30
2022-08-05T09:39:22.568Z,84.01
2022-08-05T09:40:11.432Z,84.01
2022-08-05T09:41:11.388Z,83.92
2022-08-05T09:42:17.339Z,83.89
2022-08-05T09:43:11.945Z,83.81
2022-08-05T09:44:14.553Z,83.66
2022-08-05T09:46:12.657Z,83.56
2022-08-05T09:46:15.535Z,83.56
2022-08-05T09:47:16.272Z,83.68
2022-08-05T09:48:11.654Z,83.74
2022-08-05T09:49:23.085Z,83.79
2022-08-05T09:50:11.860Z,83.79
2022-08-05T09:51:19.302Z,83.45
2022-08-05T09:52:14.876Z,83.45
2022-08-05T09:53:26.037Z,83.41
2022-08-05T09:54:10.506Z,83.47
2022-08-05T09:56:13.133Z,83.25
2022-08-05T09:56:16.656Z,83.25
2022-08-05T09:57:27.074Z,82.63
2022-08-05T09:58:10.902Z,82.63
2022-08-05T09:59:11.302Z,82.64
2022-08-05T10:00:11.964Z,82.65
2022-08-05T10:01:31.596Z,82.72
2022-08-05T10:02:11.462Z,82.72
2022-08-05T10:03:11.544Z,82.83
2022-08-05T10:04:16.175Z,82.82
2022-08-05T10:05:11.586Z,82.81
2022-08-05T10:06:19.247Z,82.70
2022-08-05T10:08:10.380Z,82.58
2022-08-05T10:08:55.783Z,82.61
2022-08-05T10:09:27.278Z,82.61
2022-08-05T10:11:13.928Z,82.39
2022-08-05T10:12:34.240Z,82.38
2022-08-05T10:13:14.641Z,82.38
2022-08-05T10:14:14.630Z,82.51
2022-08-05T10:15:12.289Z,82.56
2022-08-05T10:16:11.859Z,82.52
2022-08-05T10:17:43.428Z,82.26
2022-08-05T10:18:10.740Z,82.26
2022-08-05T10:19:12.918Z,82.33
2022-08-05T10:20:14.202Z,82.26
2022-08-05T10:21:16.295Z,82.10
2022-08-05T10:22:15.631Z,81.91
2022-08-05T10:23:59.512Z,81.85
2022-08-05T10:24:15.145Z,81.85
2022-08-05T10:25:14.401Z,81.81
2022-08-05T10:26:17.412Z,81.87
2022-08-05T10:27:11.482Z,81.83
2022-08-05T10:29:11.089Z,81.84
2022-08-05T10:33:02.590Z,81.99
2022-08-05T10:33:09.043Z,81.99
2022-08-05T10:33:09.342Z,81.99
2022-08-05T10:33:19.275Z,81.99
2022-08-05T10:34:12.715Z,81.91
2022-08-05T10:35:13.370Z,82.07
2022-08-05T10:36:12.470Z,82.05
2022-08-05T10:37:12.904Z,81.92
2022-08-05T10:38:15.234Z,81.89
2022-08-05T10:39:25.154Z,81.77
2022-08-05T10:41:23.405Z,81.70
2022-08-05T10:42:15.826Z,81.70
2022-08-05T10:43:16.536Z,81.91
2022-08-05T10:44:13.984Z,82.00
2022-08-05T10:45:40.030Z,81.85
2022-08-05T10:46:14.236Z,81.85
2022-08-05T10:47:31.401Z,82.12
2022-08-05T10:48:52.531Z,81.97
2022-08-05T10:49:16.963Z,81.97
2022-08-05T10:50:40.460Z,81.91
2022-08-05T10:51:28.443Z,81.88
2022-08-05T10:52:14.290Z,81.88
2022-08-05T10:53:21.093Z,81.83
2022-08-05T10:54:37.739Z,81.85
2022-08-05T10:55:16.091Z,81.85
2022-08-05T10:56:29.913Z,81.78
2022-08-05T10:57:14.656Z,81.78
2022-08-05T10:58:15.663Z,81.77
2022-08-05T11:00:13.265Z,81.76
2022-08-05T11:01:15.175Z,81.83
2022-08-05T11:02:34.894Z,81.77
2022-08-05T11:03:29.659Z,81.56
2022-08-05T11:04:11.437Z,81.56
2022-08-05T11:05:13.549Z,81.49
2022-08-05T11:06:18.574Z,81.55
2022-08-05T11:07:11.095Z,81.73
2022-08-05T11:08:40.492Z,81.66
2022-08-05T11:09:16.491Z,81.66
2022-08-05T11:10:13.847Z,81.61
2022-08-05T11:11:20.359Z,81.45
2022-08-05T11:12:13.035Z,81.45
2022-08-05T11:13:11.092Z,81.46
2022-08-05T11:14:12.077Z,81.35
2022-08-05T11:15:43.945Z,81.19
2022-08-05T11:16:13.452Z,81.19
2022-08-05T11:18:06.484Z,80.83
2022-08-05T11:18:15.124Z,80.83
2022-08-05T11:21:15.485Z,80.34
2022-08-05T11:22:13.060Z,80.36
2022-08-05T11:23:13.892Z,80.43
2022-08-05T11:24:34.239Z,80.62
2022-08-05T11:26:10.164Z,80.53
2022-08-05T11:26:12.932Z,80.53
2022-08-05T11:27:51.890Z,80.56
2022-08-05T11:28:10.553Z,80.56
2022-08-05T11:29:17.787Z,80.58
2022-08-05T11:30:13.950Z,80.67
2022-08-05T11:31:19.560Z,80.62
2022-08-05T11:32:11.162Z,80.33
2022-08-05T11:33:24.503Z,79.75
2022-08-05T11:34:14.815Z,79.75
2022-08-05T11:35:11.173Z,79.61
2022-08-05T11:36:12.750Z,79.49
2022-08-05T11:38:45.664Z,79.60
2022-08-05T11:38:45.770Z,79.60
2022-08-05T11:39:11.011Z,79.60
2022-08-05T11:40:10.846Z,79.33
2022-08-05T11:42:04.566Z,79.16
2022-08-05T11:42:10.948Z,79.16
2022-08-05T11:43:11.011Z,79.12
2022-08-05T11:44:11.880Z,78.96
2022-08-05T11:46:27.437Z,79.13
2022-08-05T11:46:32.759Z,79.13
2022-08-05T11:47:22.098Z,79.36
2022-08-05T11:48:15.005Z,79.35
2022-08-05T11:49:13.495Z,79.33
2022-08-05T11:50:14.455Z,79.32
2022-08-05T11:51:14.153Z,79.29
2022-08-05T11:52:15.353Z,79.26
2022-08-05T11:53:13.320Z,79.27
2022-08-05T11:54:11.526Z,79.15
2022-08-05T11:55:13.991Z,79.14
2022-08-05T11:56:14.967Z,79.01
2022-08-05T11:57:30.524Z,78.74
2022-08-05T11:58:17.402Z,78.74
2022-08-05T11:59:17.297Z,78.68
2022-08-05T12:00:12.118Z,78.51
2022-08-05T12:01:13.806Z,78.12
2022-08-05T12:02:31.265Z,77.81
2022-08-05T12:03:11.388Z,77.81
2022-08-05T12:04:10.959Z,77.95
2022-08-05T12:05:24.853Z,77.82
2022-08-05T12:06:14.099Z,77.82
2022-08-05T12:07:12.620Z,77.87
2022-08-05T12:08:18.194Z,77.98
2022-08-05T12:09:10.614Z,78.06
2022-08-05T12:10:14.707Z,78.14
2022-08-05T12:11:10.976Z,77.88
2022-08-05T12:12:10.468Z,77.85
2022-08-05T12:13:47.957Z,77.68
2022-08-05T12:14:10.616Z,77.68
2022-08-05T12:15:15.076Z,77.54
2022-08-05T12:16:19.036Z,77.45
2022-08-05T12:18:12.162Z,77.56
2022-08-05T12:18:14.850Z,77.56
2022-08-05T12:20:26.548Z,77.46
2022-08-05T12:20:33.527Z,76.64
2022-08-05T12:21:10.868Z,76.64
2022-08-05T12:22:12.908Z,76.48
2022-08-05T12:23:10.405Z,76.40
2022-08-05T12:24:11.003Z,76.52
2022-08-05T12:25:14.329Z,76.39
2022-08-05T12:26:10.253Z,76.09
2022-08-05T12:27:32.887Z,75.48
2022-08-05T12:28:10.260Z,75.48
2022-08-05T12:29:16.100Z,75.05
2022-08-05T12:30:10.937Z,74.67
2022-08-05T12:31:10.593Z,74.80
2022-08-05T12:32:12.800Z,75.13
2022-08-05T12:33:40.029Z,74.86
2022-08-05T12:34:20.622Z,74.86
2022-08-05T12:35:10.942Z,74.66
2022-08-05T12:36:12.350Z,74.69
2022-08-05T12:37:10.539Z,74.83
2022-08-05T12:38:13.328Z,74.98
2022-08-05T12:39:10.650Z,75.16
2022-08-05T12:40:14.467Z,75.21
2022-08-05T12:41:17.188Z,75.03
2022-08-05T12:42:14.778Z,75.03
2022-08-05T12:43:12.470Z,74.91
2022-08-05T12:44:32.676Z,74.79
2022-08-05T12:45:13.104Z,74.68
2022-08-05T12:46:15.674Z,74.58
2022-08-05T12:47:17.096Z,73.94
2022-08-05T12:48:32.939Z,60
2022-08-05T12:49:17.299Z,60
2022-08-05T12:50:13.880Z,0
2022-08-05T12:52:23.809Z,0
2022-08-05T12:52:31.242Z,0
2022-08-05T12:53:11.052Z,0
2022-08-05T12:55:13.516Z,0
2022-08-05T12:56:38.833Z,0
2022-08-05T12:57:16.055Z,0
2022-08-05T12:59:00.968Z,0
2022-08-05T12:59:23.847Z,0
2022-08-05T13:02:11.257Z,0
2022-08-05T13:02:11.445Z,0
2022-08-05T13:02:14.127Z,0
2022-08-05T13:03:15.611Z,0
2022-08-05T13:04:16.639Z,0
2022-08-05T13:05:14.378Z,0
2022-08-05T13:06:16.156Z,0
2022-08-05T13:07:47.522Z,50
2022-08-05T13:08:12.079Z,50
2022-08-05T13:09:12.661Z,70.98
2022-08-05T13:10:12.901Z,70.62
2022-08-05T13:11:11.009Z,70.50
2022-08-05T13:12:16.535Z,70.43
2022-08-05T13:13:12.171Z,70.98
2022-08-05T13:14:11.213Z,71.26
2022-08-05T13:15:24.340Z,70.47
2022-08-05T13:16:15.456Z,70.47
2022-08-05T13:17:10.939Z,70.23
2022-08-05T13:18:11.115Z,69.54
2022-08-05T13:19:11.816Z,69.59
2022-08-05T13:20:12.267Z,69.33
2022-08-05T13:21:10.713Z,69.34
2022-08-05T13:22:12.085Z,69.10
2022-08-05T13:23:10.992Z,69.00
2022-08-05T13:24:12.523Z,69.01
2022-08-05T13:25:52.206Z,68.75
2022-08-05T13:26:10.589Z,68.75
2022-08-05T13:27:35.330Z,68.95
2022-08-05T13:28:14.267Z,68.95
2022-08-05T13:29:11.255Z,68.88
2022-08-05T13:30:39.390Z,68.61
2022-08-05T13:31:18.053Z,68.61
2022-08-05T13:32:11.810Z,68.51
2022-08-05T13:33:14.177Z,68.34
2022-08-05T13:34:29.260Z,20
2022-08-05T13:35:10.786Z,20
2022-08-05T13:36:12.984Z,0
2022-08-05T13:37:10.980Z,0
2022-08-05T13:38:15.724Z,50
2022-08-05T13:40:35.615Z,67.91